CDT,Max TemperatureF,Mean TemperatureF,Min TemperatureF,Max Dew PointF,MeanDew PointF,Min DewpointF,Max Humidity, Mean Humidity, Min Humidity, Max Sea Level PressureIn, Mean Sea Level PressureIn, Min Sea Level PressureIn, Max VisibilityMiles, Mean VisibilityMiles, Min VisibilityMiles, Max Wind SpeedMPH, Mean Wind SpeedMPH, Max Gust SpeedMPH,PrecipitationIn, CloudCover, Events, WindDirDegrees
2013-5-1,50,44,37,32,24,19,65,50,37,30.54,30.34,30.02,10,10,10,26,17,30,0.00,1,,332
2013-5-2,48,42,35,27,22,18,70,49,30,30.63,30.54,30.47,10,10,10,25,15,32,0.00,0,,353
2013-5-3,46,38,30,34,22,19,81,51,34,30.47,30.30,30.19,10,10,4,20,12,25,0.00,2,Rain,20
2013-5-4,44,40,37,39,36,34,93,85,76,30.21,30.18,30.15,10,9,2,17,12,23,0.06,8,Rain,24
2013-5-5,59,50,41,45,42,39,93,79,59,30.21,30.17,30.13,10,7,1,12,6,,0.00,6,Rain,341
2013-5-6,71,56,41,48,44,37,93,65,40,30.15,30.10,30.04,10,9,3,9,5,,0.00,2,,282
2013-5-7,78,61,44,48,40,27,93,49,15,30.08,30.02,29.95,10,9,0,10,2,18,0.00,0,Fog,185
2013-5-8,64,60,57,57,52,45,82,72,49,30.04,30.01,29.97,10,10,7,15,6,17,0.30,4,Rain,12
2013-5-9,60,55,48,54,49,36,88,78,58,30.15,30.06,29.99,10,10,7,20,12,25,0.12,7,Rain,39
2013-5-10,68,54,41,46,28,16,66,41,16,30.16,30.07,29.90,10,10,7,28,8,38,0.00,1,Rain,26
2013-5-11,55,46,37,36,22,10,81,42,17,30.23,30.17,30.02,10,10,10,34,18,44,0.00,0,,328
2013-5-12,62,46,30,25,16,7,69,34,11,30.26,30.19,30.10,10,10,10,17,8,23,0.00,0,,330
2013-5-13,87,64,41,43,29,19,53,30,17,30.11,29.88,29.65,10,10,10,22,9,26,0.00,0,,176
2013-5-14,96,74,51,48,33,-4,67,31,4,29.79,29.64,29.52,10,10,10,34,10,44,0.00,0,Rain,309
2013-5-15,82,64,46,43,39,25,71,39,12,29.95,29.87,29.79,10,10,10,21,10,26,0.00,0,,265
2013-5-16,84,66,48,45,33,21,71,31,10,29.93,29.88,29.83,10,10,7,16,8,23,0.00,1,,89
2013-5-17,71,65,59,57,48,27,88,62,19,29.96,29.92,29.88,10,9,4,21,16,29,0.02,8,Rain-Thunderstorm,106
2013-5-18,80,70,60,66,62,55,88,76,51,29.92,29.85,29.75,10,7,3,21,14,24,0.37,4,Rain-Thunderstorm,127
2013-5-19,80,72,64,66,62,57,94,74,45,29.75,29.66,29.57,10,9,4,20,10,26,0.11,3,Rain-Thunderstorm,150
2013-5-20,71,66,62,63,58,52,94,77,56,29.57,29.51,29.49,10,8,2,13,6,23,0.58,5,Rain,155
2013-5-21,62,56,50,57,52,46,94,86,72,29.75,29.61,29.49,10,6,1,17,11,25,0.46,8,Rain,65
2013-5-22,57,52,48,48,46,43,93,81,63,30.06,29.84,29.74,10,9,3,25,14,33,0.15,7,Rain,37
2013-5-23,64,56,48,43,36,28,82,51,26,30.34,30.25,30.06,10,10,10,18,10,24,0.00,0,,61
2013-5-24,71,58,44,50,38,28,72,51,20,30.35,30.27,30.16,10,10,10,21,10,29,0.07,2,Rain-Thunderstorm,126
2013-5-25,60,58,55,50,48,45,77,71,67,30.20,30.18,30.14,10,10,7,25,18,32,0.00,8,,125
2013-5-26,59,56,53,50,46,43,82,71,63,30.19,30.12,30.02,10,9,3,29,18,36,0.00,8,,114
2013-5-27,66,60,55,55,52,48,94,77,64,30.03,29.91,29.82,10,7,2,18,13,26,0.00,8,,102
2013-5-28,64,60,55,55,54,52,88,81,68,29.81,29.76,29.72,10,6,2,13,7,16,0.00,7,Rain,117
2013-5-29,78,66,53,68,60,52,94,81,60,29.80,29.70,29.58,10,6,0,20,9,62,1.05,3,Fog-Rain-Thunderstorm,121
2013-5-30,78,71,64,63,60,55,88,71,50,29.61,29.52,29.48,10,10,7,22,14,30,0.02,4,Rain-Thunderstorm,148
2013-5-31,69,64,60,61,51,46,83,61,43,29.55,29.50,29.46,10,10,10,20,8,25,0.00,4,Rain-Thunderstorm,197